Time;durP1;ratioP1;P1;durP2;ratioP2;P2;SDS_P1;SDS_P2;PMS_P1;PMS_P2;Temp;Humidity;BMP_temperature;BMP_pressure;BME280_temperature;BME280_humidity;BME280_pressure;Samples;Min_cycle;Max_cycle;Signal;HPM_P1;HPM_P2
2021/11/11 00:01:29;;;;;;;43.72;21.98;;;;;;;;;;5046635;28;20056;-68
2021/11/11 00:03:55;;;;;;;43.25;21.60;;;;;;;;;;5063061;28;20109;-68
2021/11/11 00:06:22;;;;;;;46.70;21.85;;;;;;;;;;5061541;28;20421;-69
2021/11/11 00:08:48;;;;;;;39.63;20.13;;;;;;;;;;5066574;28;20060;-68
2021/11/11 00:11:14;;;;;;;43.75;19.95;;;;;;;;;;5067584;28;20056;-68
2021/11/11 00:13:41;;;;;;;45.45;19.90;;;;;;;;;;5047255;28;20048;-68
2021/11/11 00:16:07;;;;;;;41.83;19.55;;;;;;;;;;5062273;28;20045;-68
2021/11/11 00:18:33;;;;;;;41.25;20.63;;;;;;;;;;5057940;28;20045;-65
2021/11/11 00:21:00;;;;;;;37.78;21.08;;;;;;;;;;5067005;28;20068;-69
2021/11/11 00:23:26;;;;;;;36.63;20.13;;;;;;;;;;5061001;28;20051;-68
2021/11/11 00:25:52;;;;;;;38.35;20.38;;;;;;;;;;5066563;28;20504;-68
2021/11/11 00:28:19;;;;;;;35.92;19.35;;;;;;;;;;5063041;28;20048;-68
2021/11/11 00:30:45;;;;;;;35.83;19.13;;;;;;;;;;5055673;28;20048;-68
2021/11/11 00:33:12;;;;;;;33.03;18.25;;;;;;;;;;5067056;28;20135;-68
2021/11/11 00:35:38;;;;;;;32.35;18.92;;;;;;;;;;5060377;28;20064;-68
2021/11/11 00:38:05;;;;;;;37.17;19.45;;;;;;;;;;5067322;28;20417;-68
2021/11/11 00:40:32;;;;;;;34.53;19.80;;;;;;;;;;5060787;28;20057;-68
2021/11/11 00:42:59;;;;;;;34.90;18.58;;;;;;;;;;5062417;28;20053;-68
2021/11/11 00:45:26;;;;;;;36.78;20.73;;;;;;;;;;5062146;28;20057;-69
2021/11/11 00:47:52;;;;;;;36.35;20.85;;;;;;;;;;5059289;28;20059;-69
2021/11/11 00:50:19;;;;;;;35.97;20.42;;;;;;;;;;5067001;28;20063;-68
2021/11/11 00:52:46;;;;;;;35.22;18.42;;;;;;;;;;5059703;28;20052;-68
2021/11/11 00:55:13;;;;;;;40.75;20.27;;;;;;;;;;5055089;28;20049;-68
2021/11/11 00:57:39;;;;;;;38.78;20.92;;;;;;;;;;5041129;28;20057;-68
2021/11/11 01:00:08;;;;;;;38.67;21.27;;;;;;;;;;5046826;28;20067;-68
2021/11/11 01:02:36;;;;;;;36.17;20.55;;;;;;;;;;5065776;28;20068;-68
2021/11/11 01:05:03;;;;;;;41.83;21.05;;;;;;;;;;5060436;28;20041;-69
2021/11/11 01:07:29;;;;;;;37.38;20.02;;;;;;;;;;5061014;28;20047;-68
2021/11/11 01:09:55;;;;;;;36.63;20.52;;;;;;;;;;5057512;28;20127;-68
2021/11/11 01:12:21;;;;;;;36.58;19.52;;;;;;;;;;5048472;28;20053;-67
2021/11/11 01:14:48;;;;;;;36.00;19.90;;;;;;;;;;5037616;28;20448;-67
2021/11/11 01:17:14;;;;;;;39.33;20.83;;;;;;;;;;5066541;28;20056;-68
2021/11/11 01:19:40;;;;;;;38.40;20.75;;;;;;;;;;5045273;28;20059;-67
2021/11/11 01:22:07;;;;;;;41.42;19.55;;;;;;;;;;5055470;28;20061;-68
2021/11/11 01:24:33;;;;;;;35.15;18.60;;;;;;;;;;5065700;28;20087;-67
2021/11/11 01:27:00;;;;;;;40.55;19.88;;;;;;;;;;5060666;28;20059;-67
2021/11/11 01:29:26;;;;;;;38.20;19.38;;;;;;;;;;5070147;28;20489;-67
2021/11/11 01:31:52;;;;;;;39.15;19.08;;;;;;;;;;5063576;28;20436;-67
2021/11/11 01:34:19;;;;;;;35.55;18.67;;;;;;;;;;5065650;28;20570;-67
2021/11/11 01:36:45;;;;;;;40.75;18.73;;;;;;;;;;5064894;28;20428;-67
2021/11/11 01:39:11;;;;;;;33.03;19.00;;;;;;;;;;5063004;28;20055;-67
2021/11/11 01:41:42;;;;;;;29.90;17.83;;;;;;;;;;5070424;28;20053;-68
2021/11/11 01:44:08;;;;;;;40.67;19.52;;;;;;;;;;5064089;28;20071;-68
2021/11/11 01:46:35;;;;;;;35.97;19.50;;;;;;;;;;5069531;28;20056;-68
2021/11/11 01:49:01;;;;;;;43.38;19.77;;;;;;;;;;5055678;28;20732;-68
2021/11/11 01:51:30;;;;;;;38.10;18.77;;;;;;;;;;5060475;28;20293;-67
2021/11/11 01:53:57;;;;;;;43.08;20.40;;;;;;;;;;5030651;28;20068;-68
2021/11/11 01:56:24;;;;;;;40.60;20.70;;;;;;;;;;5042864;28;20436;-68
2021/11/11 01:58:51;;;;;;;39.30;19.67;;;;;;;;;;5047689;28;20049;-68
2021/11/11 02:01:18;;;;;;;42.20;20.58;;;;;;;;;;5033347;28;20044;-68
2021/11/11 02:03:45;;;;;;;42.50;19.88;;;;;;;;;;5047003;28;20055;-68
2021/11/11 02:06:12;;;;;;;39.85;19.23;;;;;;;;;;5044500;28;20056;-68
2021/11/11 02:08:38;;;;;;;42.90;20.67;;;;;;;;;;5052219;28;20068;-68
2021/11/11 02:11:05;;;;;;;35.60;19.92;;;;;;;;;;5067930;28;20063;-68
2021/11/11 02:13:32;;;;;;;40.55;21.02;;;;;;;;;;5065551;28;20049;-68
2021/11/11 02:15:58;;;;;;;41.97;19.38;;;;;;;;;;5027222;28;20053;-68
2021/11/11 02:18:24;;;;;;;47.15;21.25;;;;;;;;;;5020281;28;20084;-68
2021/11/11 02:20:50;;;;;;;40.33;21.20;;;;;;;;;;5040831;28;20041;-68
2021/11/11 02:23:18;;;;;;;37.60;20.30;;;;;;;;;;5064817;28;20509;-68
2021/11/11 02:25:45;;;;;;;43.60;20.70;;;;;;;;;;5071606;28;20048;-68
2021/11/11 02:28:14;;;;;;;43.65;21.08;;;;;;;;;;5071571;28;20473;-68
2021/11/11 02:30:42;;;;;;;42.08;19.80;;;;;;;;;;5058507;28;20045;-68
2021/11/11 02:33:10;;;;;;;41.92;20.70;;;;;;;;;;5071279;28;20053;-68
2021/11/11 02:35:36;;;;;;;36.07;21.23;;;;;;;;;;5056766;28;20052;-68
2021/11/11 02:38:03;;;;;;;46.05;20.88;;;;;;;;;;5070683;28;20812;-68
2021/11/11 02:40:29;;;;;;;40.65;20.60;;;;;;;;;;5064606;28;20045;-68
2021/11/11 02:42:56;;;;;;;41.13;20.70;;;;;;;;;;5069185;28;20500;-68
2021/11/11 02:45:23;;;;;;;39.25;20.10;;;;;;;;;;5060983;28;20055;-69
2021/11/11 02:47:51;;;;;;;40.83;20.73;;;;;;;;;;5070745;28;20045;-68
2021/11/11 02:50:17;;;;;;;36.97;19.25;;;;;;;;;;5071386;28;20084;-68
2021/11/11 02:52:44;;;;;;;41.70;19.88;;;;;;;;;;5064450;28;20051;-68
2021/11/11 02:55:11;;;;;;;36.45;19.77;;;;;;;;;;5059150;28;20063;-68
2021/11/11 02:57:38;;;;;;;41.28;21.70;;;;;;;;;;5057161;28;20055;-68
2021/11/11 03:00:07;;;;;;;38.00;19.27;;;;;;;;;;5070564;28;20048;-68
2021/11/11 03:02:34;;;;;;;42.92;21.02;;;;;;;;;;5063839;28;20051;-68
2021/11/11 03:05:02;;;;;;;42.80;21.33;;;;;;;;;;5070839;28;20086;-68
2021/11/11 03:07:29;;;;;;;44.53;22.30;;;;;;;;;;5070855;28;20071;-68
2021/11/11 03:09:55;;;;;;;41.25;21.77;;;;;;;;;;5059308;28;20056;-68
2021/11/11 03:12:22;;;;;;;45.88;22.15;;;;;;;;;;5066091;28;20041;-68
2021/11/11 03:14:50;;;;;;;41.90;22.00;;;;;;;;;;5042755;28;20049;-68
2021/11/11 03:17:16;;;;;;;47.55;23.38;;;;;;;;;;5050549;28;20047;-68
2021/11/11 03:19:43;;;;;;;43.80;22.08;;;;;;;;;;5043608;28;20045;-68
2021/11/11 03:22:11;;;;;;;50.90;22.30;;;;;;;;;;5049905;28;20139;-68
2021/11/11 03:24:39;;;;;;;47.05;24.50;;;;;;;;;;5065225;28;20048;-68
2021/11/11 03:27:07;;;;;;;43.50;21.90;;;;;;;;;;5058715;28;20053;-68
2021/11/11 03:29:33;;;;;;;43.42;21.80;;;;;;;;;;5070199;28;20500;-68
2021/11/11 03:32:00;;;;;;;44.72;22.73;;;;;;;;;;5063175;28;20048;-68
2021/11/11 03:34:27;;;;;;;48.67;23.30;;;;;;;;;;5070476;28;20051;-68
2021/11/11 03:36:54;;;;;;;45.03;24.67;;;;;;;;;;5063881;28;20048;-68
2021/11/11 03:39:22;;;;;;;48.53;24.80;;;;;;;;;;5063733;28;20056;-68
2021/11/11 03:41:50;;;;;;;50.15;24.58;;;;;;;;;;5066805;28;20401;-69
2021/11/11 03:44:18;;;;;;;52.75;24.02;;;;;;;;;;5066279;28;20500;-68
2021/11/11 03:46:46;;;;;;;55.30;25.50;;;;;;;;;;5070126;28;20048;-69
2021/11/11 03:49:13;;;;;;;50.42;24.83;;;;;;;;;;5063090;28;20088;-68
2021/11/11 03:51:39;;;;;;;45.67;22.92;;;;;;;;;;5068635;28;20056;-69
2021/11/11 03:54:06;;;;;;;41.92;23.50;;;;;;;;;;5060994;28;20048;-68
2021/11/11 03:56:34;;;;;;;51.80;23.20;;;;;;;;;;5049957;28;20489;-68
2021/11/11 03:59:00;;;;;;;48.90;24.55;;;;;;;;;;5042904;28;20060;-68
2021/11/11 04:01:27;;;;;;;48.08;23.13;;;;;;;;;;5058622;28;20425;-68
2021/11/11 04:03:54;;;;;;;42.95;23.15;;;;;;;;;;5062816;28;20491;-69
2021/11/11 04:06:20;;;;;;;49.75;25.52;;;;;;;;;;5062172;28;20131;-68
2021/11/11 04:08:46;;;;;;;50.13;23.65;;;;;;;;;;5069445;28;20517;-68
2021/11/11 04:11:13;;;;;;;48.38;22.52;;;;;;;;;;5063085;28;20049;-68
2021/11/11 04:13:39;;;;;;;54.17;23.60;;;;;;;;;;5070048;28;20052;-68
2021/11/11 04:16:06;;;;;;;49.15;24.40;;;;;;;;;;5067941;28;20048;-68
2021/11/11 04:18:32;;;;;;;46.67;24.25;;;;;;;;;;5038943;28;20433;-68
2021/11/11 04:21:00;;;;;;;49.00;24.42;;;;;;;;;;5069487;28;20059;-68
2021/11/11 04:23:26;;;;;;;43.58;23.73;;;;;;;;;;5062831;28;20102;-68
2021/11/11 04:26:04;;;;;;;46.53;23.58;;;;;;;;;;5069270;28;20260;-68
2021/11/11 04:28:32;;;;;;;47.72;23.42;;;;;;;;;;5063109;28;20060;-68
2021/11/11 04:31:02;;;;;;;;;;;;;;;;;;5065196;28;20052;-68
2021/11/11 04:33:29;;;;;;;57.70;23.45;;;;;;;;;;5058037;28;19932;-68
2021/11/11 04:36:03;;;;;;;45.42;23.33;;;;;;;;;;5068763;28;20049;-68
2021/11/11 04:41:31;;;;;;;47.20;24.60;;;;;;;;;;5062947;28;20052;-68
2021/11/11 04:44:23;;;;;;;46.42;24.42;;;;;;;;;;5067393;28;20047;-68
2021/11/11 05:05:16;;;;;;;48.15;24.27;;;;;;;;;;5073584;28;20103;-69
2021/11/11 05:07:42;;;;;;;48.80;25.15;;;;;;;;;;5063573;28;20055;-68
2021/11/11 05:10:09;;;;;;;46.83;26.42;;;;;;;;;;5066822;28;20048;-68
2021/11/11 05:12:35;;;;;;;47.03;25.85;;;;;;;;;;5061443;28;20049;-68
2021/11/11 05:15:02;;;;;;;46.47;24.10;;;;;;;;;;5045383;28;20056;-68
2021/11/11 05:17:28;;;;;;;57.85;26.60;;;;;;;;;;5031210;28;20702;-68
2021/11/11 05:19:54;;;;;;;48.40;25.00;;;;;;;;;;5026048;28;20061;-68
2021/11/11 05:22:21;;;;;;;50.58;26.70;;;;;;;;;;5028545;28;20065;-69
2021/11/11 05:24:47;;;;;;;53.40;26.77;;;;;;;;;;5019948;28;20037;-68
2021/11/11 05:27:14;;;;;;;50.08;24.85;;;;;;;;;;5031692;28;20046;-68
2021/11/11 05:29:41;;;;;;;51.35;26.60;;;;;;;;;;5053326;28;20056;-68
2021/11/11 05:32:08;;;;;;;47.28;25.10;;;;;;;;;;5064013;28;20059;-69
2021/11/11 05:34:35;;;;;;;51.50;24.35;;;;;;;;;;5031925;28;20060;-69
2021/11/11 05:37:01;;;;;;;49.47;25.85;;;;;;;;;;5021638;28;20060;-69
2021/11/11 05:39:28;;;;;;;51.00;24.48;;;;;;;;;;5027815;28;20053;-68
2021/11/11 05:41:55;;;;;;;44.92;24.13;;;;;;;;;;5024911;28;20054;-69
2021/11/11 05:44:21;;;;;;;51.80;24.88;;;;;;;;;;5032496;28;20481;-68
2021/11/11 05:46:47;;;;;;;43.47;22.75;;;;;;;;;;5032032;28;20052;-68
2021/11/11 05:49:14;;;;;;;49.38;25.50;;;;;;;;;;5025148;28;20054;-69
2021/11/11 05:51:40;;;;;;;45.58;23.60;;;;;;;;;;5026103;28;20049;-68
2021/11/11 05:54:07;;;;;;;46.08;23.50;;;;;;;;;;5028556;28;20052;-68
2021/11/11 05:56:34;;;;;;;45.60;23.50;;;;;;;;;;5051910;28;20052;-68
2021/11/11 05:59:00;;;;;;;46.83;25.13;;;;;;;;;;5045394;28;21956;-68
2021/11/11 06:01:26;;;;;;;53.72;25.45;;;;;;;;;;5042482;28;20053;-68
2021/11/11 06:03:52;;;;;;;48.33;24.35;;;;;;;;;;5035085;28;20080;-69
2021/11/11 06:06:19;;;;;;;55.63;24.05;;;;;;;;;;5028294;28;20390;-68
2021/11/11 06:08:46;;;;;;;48.08;24.95;;;;;;;;;;5030491;28;20542;-69
2021/11/11 06:11:12;;;;;;;50.38;24.90;;;;;;;;;;5024816;28;20053;-69
2021/11/11 06:13:38;;;;;;;52.22;24.88;;;;;;;;;;5052842;28;20048;-68
2021/11/11 06:16:05;;;;;;;38.95;19.20;;;;;;;;;;5063806;28;20055;-69
2021/11/11 06:18:32;;;;;;;48.95;25.52;;;;;;;;;;5031615;28;20564;-69
2021/11/11 06:21:02;;;;;;;46.38;23.23;;;;;;;;;;5013752;28;20473;-69
2021/11/11 06:23:29;;;;;;;48.60;22.27;;;;;;;;;;5012764;28;20056;-69
2021/11/11 06:25:56;;;;;;;47.15;23.30;;;;;;;;;;5030354;28;20037;-68
2021/11/11 06:28:22;;;;;;;51.13;25.42;;;;;;;;;;5018580;28;20067;-68
2021/11/11 06:30:48;;;;;;;52.13;24.67;;;;;;;;;;5035094;28;20045;-68
2021/11/11 06:33:15;;;;;;;44.10;23.20;;;;;;;;;;5025021;28;20053;-69
2021/11/11 06:35:41;;;;;;;46.05;21.98;;;;;;;;;;5031069;28;20076;-69
2021/11/11 06:38:08;;;;;;;42.67;22.98;;;;;;;;;;5025486;28;20084;-68
2021/11/11 06:40:34;;;;;;;47.75;23.73;;;;;;;;;;5026163;28;20045;-69
2021/11/11 06:43:02;;;;;;;44.85;21.80;;;;;;;;;;5026609;28;20453;-69
2021/11/11 06:45:35;;;;;;;40.80;21.15;;;;;;;;;;5024768;28;20045;-68
2021/11/11 06:48:01;;;;;;;41.88;21.75;;;;;;;;;;5030881;28;20050;-68
2021/11/11 06:50:28;;;;;;;53.38;23.65;;;;;;;;;;5023925;28;20534;-69
2021/11/11 06:52:54;;;;;;;50.58;22.92;;;;;;;;;;5029864;28;20045;-69
2021/11/11 06:55:21;;;;;;;48.03;23.60;;;;;;;;;;5034767;28;20048;-68
2021/11/11 06:57:48;;;;;;;46.92;24.08;;;;;;;;;;5050279;28;20065;-69
2021/11/11 07:00:14;;;;;;;50.50;22.25;;;;;;;;;;5049253;28;20086;-69
2021/11/11 07:02:41;;;;;;;41.85;21.52;;;;;;;;;;5040787;28;20063;-69
2021/11/11 07:05:07;;;;;;;50.47;24.42;;;;;;;;;;5026889;28;20047;-68
2021/11/11 07:07:34;;;;;;;50.20;22.75;;;;;;;;;;5019300;28;20045;-68
2021/11/11 07:10:01;;;;;;;49.83;23.92;;;;;;;;;;5031040;28;20156;-69
2021/11/11 07:12:27;;;;;;;46.20;23.65;;;;;;;;;;5026334;28;20395;-69
2021/11/11 07:14:53;;;;;;;48.05;23.13;;;;;;;;;;5070228;28;20059;-68
2021/11/11 07:17:20;;;;;;;44.67;22.80;;;;;;;;;;5053519;28;20053;-69
2021/11/11 07:19:46;;;;;;;51.47;25.38;;;;;;;;;;5019527;28;20076;-68
2021/11/11 07:22:12;;;;;;;48.72;23.35;;;;;;;;;;5026553;28;20060;-68
2021/11/11 07:24:39;;;;;;;42.88;21.88;;;;;;;;;;5023758;28;20417;-68
2021/11/11 07:27:05;;;;;;;44.10;22.13;;;;;;;;;;5030012;28;20061;-68
2021/11/11 07:29:31;;;;;;;44.05;22.35;;;;;;;;;;5043068;28;20044;-68
2021/11/11 07:31:59;;;;;;;49.90;24.05;;;;;;;;;;5070018;28;20053;-69
2021/11/11 07:34:27;;;;;;;42.05;20.52;;;;;;;;;;5044480;28;20885;-68
2021/11/11 07:36:54;;;;;;;48.03;23.37;;;;;;;;;;5026299;28;20058;-70
2021/11/11 07:39:21;;;;;;;45.92;23.50;;;;;;;;;;5030401;28;20282;-70
2021/11/11 07:41:50;;;;;;;48.13;24.65;;;;;;;;;;5024134;28;20053;-70
2021/11/11 07:44:16;;;;;;;47.92;24.85;;;;;;;;;;5030742;28;20080;-70
2021/11/11 07:46:43;;;;;;;51.83;25.38;;;;;;;;;;5018255;28;20060;-70
2021/11/11 07:49:10;;;;;;;59.65;26.60;;;;;;;;;;5029464;28;20049;-70
2021/11/11 07:51:37;;;;;;;46.15;23.25;;;;;;;;;;5024696;28;20382;-70
2021/11/11 07:54:03;;;;;;;43.35;21.98;;;;;;;;;;5030698;28;20417;-70
2021/11/11 07:56:29;;;;;;;50.75;26.02;;;;;;;;;;5032189;28;20045;-70
2021/11/11 07:58:56;;;;;;;53.70;25.45;;;;;;;;;;5038501;28;20606;-70
2021/11/11 08:01:23;;;;;;;49.20;25.60;;;;;;;;;;5054678;28;20048;-70
2021/11/11 08:03:50;;;;;;;44.58;25.65;;;;;;;;;;5062890;28;20542;-70
2021/11/11 08:06:16;;;;;;;52.38;26.13;;;;;;;;;;5070045;28;20044;-70
2021/11/11 08:08:43;;;;;;;52.80;25.25;;;;;;;;;;5062833;28;20500;-71
2021/11/11 08:11:09;;;;;;;50.72;27.08;;;;;;;;;;5069967;28;20122;-70
2021/11/11 08:13:35;;;;;;;52.13;26.98;;;;;;;;;;5054628;28;20051;-71
2021/11/11 08:16:02;;;;;;;51.55;26.13;;;;;;;;;;5038746;28;20123;-70
2021/11/11 08:18:28;;;;;;;50.20;26.98;;;;;;;;;;5050312;28;20053;-71
2021/11/11 08:20:54;;;;;;;51.90;27.65;;;;;;;;;;5042172;28;20110;-70
2021/11/11 08:23:22;;;;;;;54.45;28.05;;;;;;;;;;5049536;28;20071;-70
2021/11/11 08:25:49;;;;;;;51.75;26.65;;;;;;;;;;5025312;28;20510;-70
2021/11/11 08:28:16;;;;;;;54.92;26.95;;;;;;;;;;5043957;28;20080;-70
2021/11/11 08:30:43;;;;;;;65.97;28.45;;;;;;;;;;5065731;28;20044;-70
2021/11/11 08:33:10;;;;;;;55.42;28.25;;;;;;;;;;5063407;28;20489;-70
2021/11/11 08:35:37;;;;;;;64.38;28.83;;;;;;;;;;5069305;28;20045;-70
2021/11/11 08:38:04;;;;;;;54.85;28.00;;;;;;;;;;5066235;28;20052;-70
2021/11/11 08:40:30;;;;;;;57.90;28.60;;;;;;;;;;5069889;28;20048;-70
2021/11/11 08:42:58;;;;;;;55.78;28.08;;;;;;;;;;5061010;28;20389;-70
2021/11/11 08:45:26;;;;;;;57.05;28.35;;;;;;;;;;5073212;28;20053;-71
2021/11/11 08:47:53;;;;;;;49.45;28.15;;;;;;;;;;5073431;28;20058;-70
2021/11/11 08:50:20;;;;;;;45.67;25.92;;;;;;;;;;5066606;28;20070;-70
2021/11/11 08:52:49;;;;;;;55.10;27.85;;;;;;;;;;5072771;28;20055;-70
2021/11/11 08:55:17;;;;;;;54.33;27.40;;;;;;;;;;5049982;28;20063;-70
2021/11/11 08:57:43;;;;;;;55.55;26.23;;;;;;;;;;5047815;28;20060;-71
2021/11/11 09:00:14;;;;;;;54.95;26.40;;;;;;;;;;5046703;28;20052;-70
2021/11/11 09:02:41;;;;;;;56.22;28.70;;;;;;;;;;5072712;28;20390;-71
2021/11/11 09:05:07;;;;;;;54.00;27.50;;;;;;;;;;5072539;28;20045;-71
2021/11/11 09:07:38;;;;;;;59.95;29.08;;;;;;;;;;5066818;28;20076;-71
2021/11/11 09:10:09;;;;;;;53.38;26.80;;;;;;;;;;5067518;28;20053;-71
2021/11/11 09:12:36;;;;;;;51.80;26.70;;;;;;;;;;5059063;28;20454;-70
2021/11/11 09:15:04;;;;;;;57.65;29.15;;;;;;;;;;5052904;28;20063;-71
2021/11/11 09:17:31;;;;;;;60.03;28.73;;;;;;;;;;5045123;28;20245;-71
2021/11/11 09:19:58;;;;;;;57.50;28.58;;;;;;;;;;5052812;28;20053;-70
2021/11/11 09:22:25;;;;;;;56.60;27.80;;;;;;;;;;5043459;28;20413;-70
2021/11/11 09:24:51;;;;;;;55.00;27.70;;;;;;;;;;5044974;28;20310;-70
2021/11/11 09:27:18;;;;;;;55.95;29.40;;;;;;;;;;5052282;28;20052;-70
2021/11/11 09:29:44;;;;;;;55.55;29.92;;;;;;;;;;5051032;28;20524;-70
2021/11/11 09:32:11;;;;;;;58.60;29.38;;;;;;;;;;5072386;28;20040;-70
2021/11/11 09:34:37;;;;;;;59.17;28.45;;;;;;;;;;5065634;28;20133;-71
2021/11/11 09:37:04;;;;;;;54.40;28.75;;;;;;;;;;5068138;28;20421;-71
2021/11/11 09:39:30;;;;;;;53.05;28.02;;;;;;;;;;5061292;28;20245;-71
2021/11/11 09:41:58;;;;;;;57.22;29.55;;;;;;;;;;5071591;28;20048;-71
2021/11/11 09:44:25;;;;;;;65.07;29.83;;;;;;;;;;5072475;28;20362;-70
2021/11/11 09:46:52;;;;;;;62.47;30.23;;;;;;;;;;5065849;28;20063;-70
2021/11/11 09:49:21;;;;;;;62.67;31.48;;;;;;;;;;5071099;28;20048;-70
2021/11/11 09:51:48;;;;;;;66.50;31.58;;;;;;;;;;5060042;28;20087;-69
2021/11/11 09:59:28;;;;;;;55.78;29.58;;;;;;;;;;5051585;28;20383;-70
2021/11/11 10:01:58;;;;;;;60.00;28.83;;;;;;;;;;5062247;28;20059;-71
2021/11/11 10:04:25;;;;;;;66.82;29.25;;;;;;;;;;5068327;28;20135;-70
2021/11/11 10:06:51;;;;;;;56.63;29.13;;;;;;;;;;5066054;28;20512;-70
2021/11/11 10:09:22;;;;;;;59.65;29.42;;;;;;;;;;5066066;28;20055;-70
2021/11/11 10:11:50;;;;;;;63.88;29.63;;;;;;;;;;5071377;28;20044;-70
2021/11/11 10:14:28;;;;;;;62.83;30.30;;;;;;;;;;5049511;28;20057;-70
2021/11/11 10:16:56;;;;;;;61.23;28.70;;;;;;;;;;5050946;28;20056;-71
2021/11/11 10:19:23;;;;;;;59.70;26.85;;;;;;;;;;5041347;28;20290;-70
2021/11/11 10:22:05;;;;;;;56.17;27.95;;;;;;;;;;5046778;28;20063;-70
2021/11/11 10:24:37;;;;;;;58.15;29.20;;;;;;;;;;5049408;28;20413;-70
2021/11/11 10:30:04;;;;;;;58.60;27.35;;;;;;;;;;5065111;28;20059;-70
2021/11/11 10:32:39;;;;;;;61.90;28.67;;;;;;;;;;5060988;28;20058;-70
2021/11/11 10:35:10;;;;;;;57.88;27.48;;;;;;;;;;5066537;28;20044;-71
2021/11/11 10:37:38;;;;;;;61.08;27.63;;;;;;;;;;5063848;28;20049;-71
2021/11/11 10:40:04;;;;;;;53.15;25.80;;;;;;;;;;5072219;28;20051;-71
2021/11/11 10:42:31;;;;;;;53.53;26.80;;;;;;;;;;5065242;28;20139;-71
2021/11/11 10:44:58;;;;;;;52.88;26.88;;;;;;;;;;5071777;28;20124;-71
2021/11/11 10:47:27;;;;;;;54.35;28.13;;;;;;;;;;5063560;28;20071;-70
2021/11/11 10:49:53;;;;;;;48.20;25.88;;;;;;;;;;5066135;28;20052;-70
2021/11/11 10:52:26;;;;;;;47.53;25.40;;;;;;;;;;5071815;28;20052;-71
2021/11/11 10:55:04;;;;;;;52.22;26.50;;;;;;;;;;5055610;28;20056;-71
2021/11/11 10:57:32;;;;;;;51.72;27.27;;;;;;;;;;5050576;28;20045;-71
2021/11/11 11:00:06;;;;;;;50.58;26.27;;;;;;;;;;5042231;28;20044;-70
2021/11/11 11:02:53;;;;;;;52.83;24.77;;;;;;;;;;5063935;28;20048;-70
2021/11/11 11:05:22;;;;;;;53.22;26.45;;;;;;;;;;5063320;28;20048;-70
2021/11/11 11:07:56;;;;;;;56.63;26.17;;;;;;;;;;5070079;28;20048;-70
2021/11/11 11:10:23;;;;;;;47.85;26.10;;;;;;;;;;5064105;28;20353;-71
2021/11/11 11:12:50;;;;;;;59.22;27.20;;;;;;;;;;5065869;28;20053;-71
2021/11/11 11:15:32;;;;;;;55.25;26.65;;;;;;;;;;5045990;28;20168;-70
2021/11/11 11:17:58;;;;;;;53.25;26.60;;;;;;;;;;5039534;28;20053;-70
2021/11/11 11:20:27;;;;;;;51.92;27.33;;;;;;;;;;5050535;28;20056;-70
2021/11/11 11:23:15;;;;;;;47.95;25.20;;;;;;;;;;5042438;28;20049;-71
2021/11/11 11:26:02;;;;;;;58.78;27.42;;;;;;;;;;5050297;28;20283;-70
2021/11/11 11:28:43;;;;;;;51.57;26.90;;;;;;;;;;5040077;28;20045;-70
2021/11/11 11:31:10;;;;;;;61.53;28.15;;;;;;;;;;5066225;28;20045;-71
2021/11/11 11:33:43;;;;;;;55.97;27.50;;;;;;;;;;5064436;28;20478;-71
2021/11/11 11:36:16;;;;;;;52.85;26.35;;;;;;;;;;5070754;28;20146;-71
2021/11/11 11:38:52;;;;;;;52.28;27.00;;;;;;;;;;5063600;28;20052;-70
2021/11/11 11:41:39;;;;;;;50.83;26.77;;;;;;;;;;5050484;28;20477;-70
2021/11/11 11:44:15;;;;;;;52.63;26.35;;;;;;;;;;5058611;28;20059;-70
2021/11/11 11:46:42;;;;;;;49.78;25.52;;;;;;;;;;5069059;28;20044;-70
2021/11/11 11:49:08;;;;;;;55.15;25.90;;;;;;;;;;5070389;28;20097;-71
2021/11/11 11:51:36;;;;;;;52.53;27.42;;;;;;;;;;5063765;28;20069;-72
2021/11/11 11:54:08;;;;;;;54.05;26.15;;;;;;;;;;5068605;28;20478;-70
2021/11/11 11:56:43;;;;;;;56.70;27.38;;;;;;;;;;5038585;28;20053;-70
2021/11/11 11:59:13;;;;;;;54.83;27.10;;;;;;;;;;5045148;28;20060;-70
2021/11/11 12:01:54;;;;;;;54.80;28.63;;;;;;;;;;5052873;28;20060;-70
2021/11/11 12:07:32;;;;;;;59.67;26.83;;;;;;;;;;5063717;28;20071;-70
2021/11/11 12:10:24;;;;;;;48.67;26.80;;;;;;;;;;5066190;28;20080;-70
2021/11/11 12:13:47;;;;;;;69.50;27.70;;;;;;;;;;5054414;28;20074;-70
2021/11/11 12:29:45;;;;;;;57.15;27.23;;;;;;;;;;5043218;28;20045;-70
2021/11/11 12:40:29;;;;;;;55.40;28.10;;;;;;;;;;5064783;28;20481;-70
2021/11/11 12:42:58;;;;;;;53.92;28.92;;;;;;;;;;5062398;28;20071;-70
2021/11/11 12:45:25;;;;;;;55.63;29.60;;;;;;;;;;5068719;28;20057;-70
2021/11/11 12:48:24;;;;;;;55.65;28.95;;;;;;;;;;5062044;28;20425;-70
2021/11/11 12:50:59;;;;;;;54.88;28.27;;;;;;;;;;5024916;28;20058;-70
2021/11/11 12:53:32;;;;;;;53.72;27.33;;;;;;;;;;5055822;28;20061;-70
2021/11/11 12:56:01;;;;;;;53.95;29.58;;;;;;;;;;5052106;28;20045;-70
2021/11/11 12:58:31;;;;;;;48.40;28.35;;;;;;;;;;5043078;28;20053;-70
2021/11/11 13:00:59;;;;;;;53.83;26.75;;;;;;;;;;5054774;28;20482;-70
2021/11/11 13:03:43;;;;;;;56.30;28.10;;;;;;;;;;5069216;28;20049;-70
2021/11/11 13:06:09;;;;;;;57.45;28.80;;;;;;;;;;5046899;28;20482;-70
2021/11/11 13:08:42;;;;;;;65.47;29.40;;;;;;;;;;5067809;28;20055;-70
2021/11/11 13:11:12;;;;;;;66.88;29.83;;;;;;;;;;5062420;28;20049;-70
2021/11/11 13:13:39;;;;;;;60.95;28.50;;;;;;;;;;5043993;28;20371;-70
2021/11/11 13:16:13;;;;;;;59.30;28.60;;;;;;;;;;5062604;28;20049;-70
2021/11/11 13:18:40;;;;;;;60.88;29.77;;;;;;;;;;5064092;28;20051;-70
2021/11/11 13:21:12;;;;;;;63.05;30.70;;;;;;;;;;5057187;28;20056;-70
2021/11/11 13:23:52;;;;;;;53.53;27.77;;;;;;;;;;5070747;28;20049;-69
2021/11/11 14:28:19;;;;;;;56.47;28.88;;;;;;;;;;5050777;28;20378;-71
2021/11/11 15:57:11;;;;;;;49.40;27.35;;;;;;;;;;5049339;28;20053;-71
2021/11/11 16:02:31;;;;;;;60.40;28.95;;;;;;;;;;5060171;28;20052;-71
2021/11/11 16:22:15;;;;;;;62.70;30.00;;;;;;;;;;5038884;28;20053;-72
2021/11/11 16:27:29;;;;;;;57.58;31.42;;;;;;;;;;5049895;28;20122;-70
2021/11/11 16:29:55;;;;;;;;;;;;;;;;;;5055812;28;20425;-70
2021/11/11 16:32:21;;;;;;;65.35;30.58;;;;;;;;;;5070107;28;19943;-71
2021/11/11 16:34:48;;;;;;;59.47;32.38;;;;;;;;;;5058643;28;20053;-70
2021/11/11 16:37:32;;;;;;;60.28;32.30;;;;;;;;;;5065334;28;20060;-71
2021/11/11 16:39:58;;;;;;;69.00;34.92;;;;;;;;;;5063683;28;20048;-71
2021/11/11 16:42:24;;;;;;;61.95;33.15;;;;;;;;;;5069998;28;20421;-70
2021/11/11 16:45:00;;;;;;;56.78;31.80;;;;;;;;;;5063124;28;20052;-71
2021/11/11 16:47:26;;;;;;;63.58;33.70;;;;;;;;;;5067787;28;20054;-71
2021/11/11 16:49:54;;;;;;;65.88;35.25;;;;;;;;;;5063192;28;20044;-71
2021/11/11 16:52:20;;;;;;;67.20;35.42;;;;;;;;;;5062504;28;20049;-71
2021/11/11 16:54:47;;;;;;;69.00;35.40;;;;;;;;;;5062159;28;20049;-71
2021/11/11 16:57:13;;;;;;;61.78;33.13;;;;;;;;;;5043054;28;20052;-71
2021/11/11 16:59:39;;;;;;;89.95;41.33;;;;;;;;;;5035618;28;20060;-72
2021/11/11 17:02:06;;;;;;;66.63;35.00;;;;;;;;;;5051338;28;20072;-71
2021/11/11 17:04:32;;;;;;;61.88;33.28;;;;;;;;;;5053620;28;20398;-71
2021/11/11 17:06:59;;;;;;;71.93;36.13;;;;;;;;;;5052900;28;20413;-71
2021/11/11 17:09:26;;;;;;;67.95;35.65;;;;;;;;;;5028154;28;20438;-70
2021/11/11 17:11:52;;;;;;;61.00;35.33;;;;;;;;;;5031401;28;20447;-71
2021/11/11 17:14:18;;;;;;;68.03;34.35;;;;;;;;;;5023955;28;20046;-70
2021/11/11 17:16:51;;;;;;;62.85;34.88;;;;;;;;;;5032825;28;20053;-71
2021/11/11 17:19:19;;;;;;;68.75;37.55;;;;;;;;;;5024032;28;20055;-70
2021/11/11 17:21:46;;;;;;;60.17;32.70;;;;;;;;;;5030608;28;20049;-72
2021/11/11 17:24:21;;;;;;;62.90;34.58;;;;;;;;;;5030756;28;20517;-72
2021/11/11 17:27:21;;;;;;;63.17;33.42;;;;;;;;;;5023402;28;20042;-70
2021/11/11 17:29:35;;;;;;;73.50;33.45;;;;;;;;;;5027061;28;20053;-69
2021/11/11 17:32:02;;;;;;;65.43;34.78;;;;;;;;;;5024544;28;20056;-69
2021/11/11 17:34:28;;;;;;;61.95;33.55;;;;;;;;;;5031319;28;20049;-70
2021/11/11 17:36:55;;;;;;;56.30;31.80;;;;;;;;;;5024054;28;20072;-70
2021/11/11 17:39:22;;;;;;;59.97;32.50;;;;;;;;;;5030715;28;20041;-71
2021/11/11 17:41:49;;;;;;;55.83;32.67;;;;;;;;;;5017004;28;20054;-71
2021/11/11 17:44:16;;;;;;;67.05;34.28;;;;;;;;;;5027836;28;20162;-70
2021/11/11 17:46:45;;;;;;;55.03;32.67;;;;;;;;;;5029623;28;20073;-71
2021/11/11 17:49:37;;;;;;;59.03;33.80;;;;;;;;;;5023632;28;20053;-70
2021/11/11 17:52:16;;;;;;;61.95;34.13;;;;;;;;;;5029876;28;20046;-70
2021/11/11 17:54:43;;;;;;;57.42;32.45;;;;;;;;;;5025492;28;20493;-70
2021/11/11 17:57:16;;;;;;;63.03;33.78;;;;;;;;;;5045509;28;20053;-70
2021/11/11 17:59:42;;;;;;;62.55;34.40;;;;;;;;;;5043024;28;20525;-70
2021/11/11 18:02:15;;;;;;;57.42;34.03;;;;;;;;;;5065097;28;20052;-70
2021/11/11 18:04:50;;;;;;;56.35;34.53;;;;;;;;;;5063185;28;20052;-70
2021/11/11 18:07:24;;;;;;;58.38;34.63;;;;;;;;;;5068022;28;20086;-70
2021/11/11 18:09:57;;;;;;;65.13;35.58;;;;;;;;;;5035205;28;20494;-70
2021/11/11 18:12:30;;;;;;;65.50;35.30;;;;;;;;;;5027935;28;20852;-70